Time;durP1;ratioP1;P1;durP2;ratioP2;P2;SDS_P1;SDS_P2;PMS_P1;PMS_P2;Temp;Humidity;BMP_temperature;BMP_pressure;BME280_temperature;BME280_humidity;BME280_pressure;Samples;Min_cycle;Max_cycle;Signal;HPM_P1;HPM_P2
2022/09/15 00:00:37;;;;;;;;;;;14.40;99.90;;;;;;5071651;28;19924;-68
2022/09/15 00:03:03;;;;;;;;;;;14.40;99.90;;;;;;5073363;28;20269;-69
2022/09/15 00:05:28;;;;;;;;;;;14.50;99.90;;;;;;5073716;28;20389;-68
2022/09/15 00:07:54;;;;;;;;;;;14.40;99.90;;;;;;5073224;28;19924;-67
2022/09/15 00:10:19;;;;;;;;;;;14.50;99.90;;;;;;5073202;28;19924;-67
2022/09/15 00:12:45;;;;;;;;;;;14.40;99.90;;;;;;5071282;28;20496;-69
2022/09/15 00:15:13;;;;;;;;;;;14.50;99.90;;;;;;5073008;28;19924;-66
2022/09/15 00:17:39;;;;;;;;;;;14.50;99.90;;;;;;5072669;28;19931;-69
2022/09/15 00:20:06;;;;;;;;;;;14.50;99.90;;;;;;5073200;28;19931;-67
2022/09/15 00:22:32;;;;;;;;;;;14.50;99.90;;;;;;5072847;28;20004;-66
2022/09/15 00:24:57;;;;;;;;;;;14.50;99.90;;;;;;5071632;28;19924;-67
2022/09/15 00:27:23;;;;;;;;;;;14.50;99.90;;;;;;5081945;28;20178;-66
2022/09/15 00:29:48;;;;;;;;;;;14.60;99.90;;;;;;5090289;28;20483;-67
2022/09/15 00:32:14;;;;;;;;;;;14.50;99.90;;;;;;5090559;28;20404;-67
2022/09/15 00:34:39;;;;;;;;;;;14.50;99.90;;;;;;5090369;28;20642;-66
2022/09/15 00:37:05;;;;;;;;;;;14.60;99.90;;;;;;5080625;28;20011;-67
2022/09/15 00:39:30;;;;;;;;;;;14.60;99.90;;;;;;5072607;28;19985;-67
2022/09/15 00:41:56;;;;;;;;;;;14.60;99.90;;;;;;5070900;28;20449;-69
2022/09/15 00:44:21;;;;;;;;;;;14.70;99.90;;;;;;5072214;28;20014;-67
2022/09/15 00:46:49;;;;;;;;;;;14.70;99.90;;;;;;5072196;28;20183;-67
2022/09/15 00:49:22;;;;;;;;;;;14.70;99.90;;;;;;5071225;28;19974;-66
2022/09/15 00:51:53;;;;;;;;;;;14.70;99.90;;;;;;5071896;28;19919;-69
2022/09/15 00:54:23;;;;;;;;;;;14.70;99.90;;;;;;5070710;28;19924;-70
2022/09/15 00:56:51;;;;;;;;;;;14.70;99.90;;;;;;5070805;28;20315;-67
2022/09/15 00:59:19;;;;;;;;;;;14.70;99.90;;;;;;5069537;28;20555;-67
2022/09/15 01:01:46;;;;;;;;;;;14.80;99.90;;;;;;5072319;28;20453;-67
2022/09/15 01:04:12;;;;;;;;;;;14.80;99.90;;;;;;5071627;28;19924;-68
2022/09/15 01:06:41;;;;;;;;;;;14.90;99.90;;;;;;5070667;28;19951;-67
2022/09/15 01:09:07;;;;;;;;;;;14.90;99.90;;;;;;5071620;28;20539;-67
2022/09/15 01:11:32;;;;;;;;;;;14.90;99.90;;;;;;5071970;28;20231;-67
2022/09/15 01:13:58;;;;;;;;;;;14.90;99.90;;;;;;5070307;28;20340;-66
2022/09/15 01:16:27;;;;;;;;;;;14.80;99.90;;;;;;5072625;28;19924;-66
2022/09/15 01:19:03;;;;;;;;;;;14.80;99.90;;;;;;5071881;28;19923;-68
2022/09/15 01:21:52;;;;;;;;;;;14.90;99.90;;;;;;5073044;28;19923;-67
2022/09/15 01:24:31;;;;;;;;;;;14.90;99.90;;;;;;5064918;28;19924;-66
2022/09/15 01:26:59;;;;;;;;;;;14.90;99.90;;;;;;5074012;28;19924;-67
2022/09/15 01:29:25;;;;;;;;;;;14.90;99.90;;;;;;5074201;28;20397;-69
2022/09/15 01:34:53;;;;;;;;;;;14.90;99.90;;;;;;5073004;28;20011;-66
2022/09/15 01:37:21;;;;;;;;;;;14.90;99.90;;;;;;5072654;28;20072;-68
2022/09/15 01:39:49;;;;;;;;;;;14.80;99.90;;;;;;5074136;28;19928;-68
2022/09/15 01:42:17;;;;;;;;;;;14.90;99.90;;;;;;5081927;28;19966;-70
2022/09/15 01:44:50;;;;;;;;;;;14.80;99.90;;;;;;5093049;28;19920;-67
2022/09/15 01:47:18;;;;;;;;;;;14.80;99.90;;;;;;5092019;28;19931;-67
2022/09/15 01:49:49;;;;;;;;;;;14.80;99.90;;;;;;5092939;28;19930;-67
2022/09/15 01:52:16;;;;;;;;;;;14.80;99.90;;;;;;5093336;28;19927;-68
2022/09/15 01:54:47;;;;;;;;;;;14.80;99.90;;;;;;5093156;28;20690;-67
2022/09/15 01:57:16;;;;;;;;;;;14.80;99.90;;;;;;5075370;28;20303;-68
2022/09/15 01:59:44;;;;;;;;;;;14.80;99.90;;;;;;5073511;28;19931;-69
2022/09/15 02:02:13;;;;;;;;;;;14.70;99.90;;;;;;5071635;28;20175;-64
2022/09/15 02:04:44;;;;;;;;;;;14.70;99.90;;;;;;5073409;28;20028;-68
2022/09/15 02:07:19;;;;;;;;;;;14.80;99.90;;;;;;5071696;28;20654;-65
2022/09/15 02:09:52;;;;;;;;;;;14.80;99.90;;;;;;5071274;28;20394;-67
2022/09/15 02:12:27;;;;;;;;;;;14.90;99.90;;;;;;5092000;28;19930;-70
2022/09/15 02:14:54;;;;;;;;;;;14.90;99.90;;;;;;5093131;28;19956;-66
2022/09/15 02:17:20;;;;;;;;;;;14.80;99.90;;;;;;5089981;28;19969;-65
2022/09/15 02:19:48;;;;;;;;;;;14.80;99.90;;;;;;5088842;28;20256;-67
2022/09/15 02:22:16;;;;;;;;;;;14.80;99.90;;;;;;5090504;28;19924;-69
2022/09/15 02:24:48;;;;;;;;;;;14.70;99.90;;;;;;5089827;28;19924;-69
2022/09/15 02:27:21;;;;;;;;;;;14.70;99.90;;;;;;5089999;28;19919;-66
2022/09/15 02:29:47;;;;;;;;;;;14.70;99.90;;;;;;5089905;28;19974;-68
2022/09/15 02:32:14;;;;;;;;;;;14.70;99.90;;;;;;5089328;28;19946;-67
2022/09/15 02:34:43;;;;;;;;;;;14.60;99.90;;;;;;5088926;28;19930;-67
2022/09/15 02:37:08;;;;;;;;;;;14.60;99.90;;;;;;5071654;28;19924;-67
2022/09/15 02:39:37;;;;;;;;;;;14.60;99.90;;;;;;5072048;28;19974;-68
2022/09/15 02:42:03;;;;;;;;;;;14.60;99.90;;;;;;5072872;28;20388;-66
2022/09/15 02:44:32;;;;;;;;;;;14.60;99.90;;;;;;5071584;28;19931;-67
2022/09/15 02:46:59;;;;;;;;;;;14.60;99.90;;;;;;5071614;28;20339;-69
2022/09/15 02:49:25;;;;;;;;;;;14.60;99.90;;;;;;5070651;28;20288;-67
2022/09/15 02:51:50;;;;;;;;;;;14.60;99.90;;;;;;5070883;28;19924;-66
2022/09/15 02:54:16;;;;;;;;;;;14.60;99.90;;;;;;5072318;28;19927;-67
2022/09/15 02:56:42;;;;;;;;;;;14.60;99.90;;;;;;5072084;28;19924;-68
2022/09/15 02:59:08;;;;;;;;;;;14.50;99.90;;;;;;5069402;28;20013;-66
2022/09/15 03:01:33;;;;;;;;;;;14.60;99.90;;;;;;5069276;28;19920;-68
2022/09/15 03:04:00;;;;;;;;;;;14.60;99.90;;;;;;5068714;28;19924;-67
2022/09/15 03:06:29;;;;;;;;;;;14.70;99.90;;;;;;5072355;28;20044;-68
2022/09/15 03:08:57;;;;;;;;;;;14.70;99.90;;;;;;5071248;28;19920;-67
2022/09/15 03:11:24;;;;;;;;;;;14.70;99.90;;;;;;5070400;28;20465;-67
2022/09/15 03:14:07;;;;;;;;;;;14.70;99.90;;;;;;5068821;28;19924;-67
2022/09/15 03:16:34;;;;;;;;;;;14.70;99.90;;;;;;5069636;28;19992;-67
2022/09/15 03:19:00;;;;;;;;;;;14.60;99.90;;;;;;5070396;28;19924;-68
2022/09/15 03:21:28;;;;;;;;;;;14.60;99.90;;;;;;5069867;28;19964;-69
2022/09/15 03:23:54;;;;;;;;;;;14.60;99.90;;;;;;5070141;28;19920;-67
2022/09/15 03:26:19;;;;;;;;;;;14.60;99.90;;;;;;5079596;28;19923;-64
2022/09/15 03:28:45;;;;;;;;;;;14.50;99.90;;;;;;5089336;28;19924;-67
2022/09/15 03:31:11;;;;;;;;;;;14.50;99.90;;;;;;5085079;28;19935;-68
2022/09/15 03:33:36;;;;;;;;;;;14.50;99.90;;;;;;5070976;28;20391;-69
2022/09/15 03:36:02;;;;;;;;;;;14.40;99.90;;;;;;5070643;28;20415;-65
2022/09/15 03:38:28;;;;;;;;;;;14.40;99.90;;;;;;5070888;28;19924;-67
2022/09/15 03:41:01;;;;;;;;;;;14.40;99.90;;;;;;5070836;28;20011;-66
2022/09/15 03:43:27;;;;;;;;;;;14.40;99.90;;;;;;5070937;28;20020;-69
2022/09/15 03:45:53;;;;;;;;;;;14.30;99.90;;;;;;5070761;28;20351;-67
2022/09/15 03:48:19;;;;;;;;;;;14.40;99.90;;;;;;5071666;28;19999;-68
2022/09/15 03:50:46;;;;;;;;;;;14.40;99.90;;;;;;5070877;28;20011;-68
2022/09/15 03:53:11;;;;;;;;;;;14.40;99.90;;;;;;5072420;28;20817;-66
2022/09/15 03:55:37;;;;;;;;;;;14.50;99.90;;;;;;5088008;28;20072;-67
2022/09/15 03:58:02;;;;;;;;;;;14.60;99.90;;;;;;5090191;28;20389;-67
2022/09/15 04:00:28;;;;;;;;;;;14.60;99.90;;;;;;5090097;28;20342;-67
2022/09/15 04:02:54;;;;;;;;;;;14.70;99.90;;;;;;5088644;28;20446;-67
2022/09/15 04:05:19;;;;;;;;;;;14.80;99.90;;;;;;5089844;28;20221;-67
2022/09/15 04:07:45;;;;;;;;;;;14.70;99.90;;;;;;5089609;28;19919;-68
2022/09/15 04:10:11;;;;;;;;;;;14.70;99.90;;;;;;5091647;28;20469;-67
2022/09/15 04:12:37;;;;;;;;;;;14.60;99.90;;;;;;5093141;28;19989;-68
2022/09/15 04:15:02;;;;;;;;;;;14.60;99.90;;;;;;5093213;28;20485;-66
2022/09/15 04:17:28;;;;;;;;;;;14.50;99.90;;;;;;5092102;28;19967;-68
2022/09/15 04:19:54;;;;;;;;;;;14.50;99.90;;;;;;5093194;28;19923;-68
2022/09/15 04:22:20;;;;;;;;;;;14.50;99.90;;;;;;5092566;28;20282;-67
2022/09/15 04:24:47;;;;;;;;;;;14.50;99.90;;;;;;5092197;28;19923;-67
2022/09/15 04:27:13;;;;;;;;;;;14.50;99.90;;;;;;5092203;28;19924;-68
2022/09/15 04:29:38;;;;;;;;;;;14.50;99.90;;;;;;5091188;28;19920;-68
2022/09/15 04:32:04;;;;;;;;;;;14.50;99.90;;;;;;5092427;28;19923;-68
2022/09/15 04:34:29;;;;;;;;;;;14.50;99.90;;;;;;5092554;28;19924;-67
2022/09/15 04:36:55;;;;;;;;;;;14.60;99.90;;;;;;5083615;28;19924;-68
2022/09/15 04:39:21;;;;;;;;;;;14.70;99.90;;;;;;5072808;28;19924;-67
2022/09/15 04:41:46;;;;;;;;;;;14.60;99.90;;;;;;5072031;28;19923;-67
2022/09/15 04:44:12;;;;;;;;;;;14.70;99.90;;;;;;5072380;28;20000;-69
2022/09/15 04:46:37;;;;;;;;;;;14.60;99.90;;;;;;5070913;28;20028;-68
2022/09/15 04:49:03;;;;;;;;;;;14.60;99.90;;;;;;5071522;28;19924;-66
2022/09/15 04:51:29;;;;;;;;;;;14.60;99.90;;;;;;5072337;28;19988;-66
2022/09/15 04:53:54;;;;;;;;;;;14.50;99.90;;;;;;5070670;28;19920;-66
2022/09/15 04:56:21;;;;;;;;;;;14.50;99.90;;;;;;5070796;28;19920;-68
2022/09/15 04:58:51;;;;;;;;;;;14.40;99.90;;;;;;5071026;28;19935;-68
2022/09/15 05:01:18;;;;;;;;;;;14.40;99.90;;;;;;5071977;28;20457;-69
2022/09/15 05:03:45;;;;;;;;;;;14.30;99.90;;;;;;5072665;28;20437;-68
2022/09/15 05:06:12;;;;;;;;;;;14.30;99.90;;;;;;5071831;28;19946;-68
2022/09/15 05:08:37;;;;;;;;;;;14.30;99.90;;;;;;5085468;28;20130;-66
2022/09/15 05:11:05;;;;;;;;;;;14.30;99.90;;;;;;5091587;28;19923;-69
2022/09/15 05:13:31;;;;;;;;;;;14.30;99.90;;;;;;5092770;28;19935;-69
2022/09/15 05:16:02;;;;;;;;;;;14.50;99.90;;;;;;5094345;28;19928;-67
2022/09/15 05:18:27;;;;;;;;;;;14.50;99.90;;;;;;5092744;27;19946;-67
2022/09/15 05:20:59;;;;;;;;;;;14.60;99.90;;;;;;5071825;28;20367;-68
2022/09/15 05:23:25;;;;;;;;;;;14.70;99.90;;;;;;5072050;28;19959;-69
2022/09/15 05:25:55;;;;;;;;;;;14.70;99.90;;;;;;5077128;28;19927;-67
2022/09/15 05:28:20;;;;;;;;;;;14.60;99.90;;;;;;5071036;28;19919;-68
2022/09/15 05:30:46;;;;;;;;;;;14.60;99.90;;;;;;5071748;28;19923;-66
2022/09/15 05:33:11;;;;;;;;;;;14.60;99.90;;;;;;5069613;28;20427;-66
2022/09/15 05:35:37;;;;;;;;;;;14.60;99.90;;;;;;5083896;28;19923;-68
2022/09/15 05:38:03;;;;;;;;;;;14.60;99.90;;;;;;5089155;28;20550;-67
2022/09/15 05:40:29;;;;;;;;;;;14.50;99.90;;;;;;5080603;28;20361;-67
2022/09/15 05:42:54;;;;;;;;;;;14.50;99.90;;;;;;5071241;28;20339;-67
2022/09/15 05:45:20;;;;;;;;;;;14.50;99.90;;;;;;5071952;28;19919;-69
2022/09/15 05:47:45;;;;;;;;;;;14.50;99.90;;;;;;5090034;28;19924;-66
2022/09/15 05:50:11;;;;;;;;;;;14.50;99.90;;;;;;5089379;28;20237;-67
2022/09/15 05:52:37;;;;;;;;;;;14.40;99.90;;;;;;5088999;28;20441;-67
2022/09/15 05:55:02;;;;;;;;;;;14.50;99.90;;;;;;5090721;28;20504;-67
2022/09/15 05:57:28;;;;;;;;;;;14.50;99.90;;;;;;5069660;28;19920;-66
2022/09/15 05:59:53;;;;;;;;;;;14.50;99.90;;;;;;5070376;28;20010;-68
2022/09/15 06:02:19;;;;;;;;;;;14.50;99.90;;;;;;5083723;28;19919;-67
2022/09/15 06:04:44;;;;;;;;;;;14.60;99.90;;;;;;5090308;28;19920;-67
2022/09/15 06:07:10;;;;;;;;;;;14.60;99.90;;;;;;5088793;28;19931;-70
2022/09/15 06:09:36;;;;;;;;;;;14.60;99.90;;;;;;5070248;28;20304;-65
2022/09/15 06:12:02;;;;;;;;;;;14.70;99.90;;;;;;5071539;28;19928;-67
2022/09/15 06:14:27;;;;;;;;;;;14.70;99.90;;;;;;5072869;28;19931;-68
2022/09/15 06:16:53;;;;;;;;;;;14.80;99.90;;;;;;5072961;28;19920;-67
2022/09/15 06:19:18;;;;;;;;;;;14.90;99.90;;;;;;5072169;28;19976;-65
2022/09/15 06:21:44;;;;;;;;;;;14.80;99.90;;;;;;5072330;28;20404;-67
2022/09/15 06:24:11;;;;;;;;;;;14.80;99.90;;;;;;5072057;28;20018;-67
2022/09/15 06:26:36;;;;;;;;;;;14.90;99.90;;;;;;5072427;28;20354;-67
2022/09/15 06:29:03;;;;;;;;;;;14.80;99.90;;;;;;5073717;28;19927;-66
2022/09/15 06:31:30;;;;;;;;;;;14.80;99.90;;;;;;5090776;28;19930;-67
2022/09/15 06:33:56;;;;;;;;;;;14.90;99.90;;;;;;5090218;28;20878;-70
2022/09/15 06:36:23;;;;;;;;;;;14.90;99.90;;;;;;5091118;28;19919;-66
2022/09/15 06:38:50;;;;;;;;;;;14.90;99.90;;;;;;5091051;28;19920;-69
2022/09/15 06:41:16;;;;;;;;;;;15.00;99.90;;;;;;5090480;28;20404;-69
2022/09/15 06:43:42;;;;;;;;;;;15.00;99.90;;;;;;5089537;28;19924;-68
2022/09/15 06:46:09;;;;;;;;;;;15.00;99.90;;;;;;5076611;28;19920;-70
2022/09/15 06:48:35;;;;;;;;;;;15.00;99.90;;;;;;5070402;28;19935;-66
2022/09/15 06:51:01;;;;;;;;;;;15.10;99.90;;;;;;5070213;28;20333;-66
2022/09/15 06:53:27;;;;;;;;;;;15.10;99.90;;;;;;5069999;28;20019;-68
2022/09/15 06:55:53;;;;;;;;;;;15.20;99.90;;;;;;5052232;28;20712;-69
2022/09/15 06:58:19;;;;;;;;;;;15.20;99.90;;;;;;5071492;28;19923;-67
2022/09/15 07:00:45;;;;;;;;;;;15.30;99.90;;;;;;5070062;28;19924;-69
2022/09/15 07:03:11;;;;;;;;;;;15.40;99.90;;;;;;5069468;28;19923;-69
2022/09/15 07:05:36;;;;;;;;;;;15.60;99.90;;;;;;5069971;28;19982;-71
2022/09/15 07:08:02;;;;;;;;;;;15.60;99.90;;;;;;5051531;28;19927;-67
2022/09/15 07:10:27;;;;;;;;;;;15.80;99.90;;;;;;5069696;28;19931;-67
2022/09/15 07:12:54;;;;;;;;;;;16.00;99.90;;;;;;5070734;28;19986;-69
2022/09/15 07:15:22;;;;;;;;;;;16.20;99.90;;;;;;5070943;28;19927;-67
2022/09/15 07:17:47;;;;;;;;;;;16.30;99.90;;;;;;5085705;28;20088;-67
2022/09/15 07:20:13;;;;;;;;;;;16.30;99.90;;;;;;5088116;28;20027;-66
2022/09/15 07:22:38;;;;;;;;;;;16.10;99.90;;;;;;5089790;28;19949;-68
2022/09/15 07:25:04;;;;;;;;;;;15.90;99.90;;;;;;5089517;28;20351;-68
2022/09/15 07:27:30;;;;;;;;;;;15.90;99.90;;;;;;5090075;28;19923;-68
2022/09/15 07:29:59;;;;;;;;;;;15.80;99.90;;;;;;5090916;28;19977;-68
2022/09/15 07:32:24;;;;;;;;;;;15.80;99.90;;;;;;5091356;28;19924;-67
2022/09/15 07:34:51;;;;;;;;;;;15.90;99.90;;;;;;5093622;28;20418;-67
2022/09/15 07:37:17;;;;;;;;;;;16.10;99.90;;;;;;5094604;28;19928;-70
2022/09/15 07:39:42;;;;;;;;;;;16.10;99.90;;;;;;5093286;28;19926;-68
2022/09/15 07:42:08;;;;;;;;;;;16.20;99.90;;;;;;5094651;28;19923;-68
2022/09/15 07:44:33;;;;;;;;;;;16.20;99.90;;;;;;5096389;28;19919;-67
2022/09/15 07:46:59;;;;;;;;;;;16.30;99.90;;;;;;5090776;28;19928;-71
2022/09/15 07:49:24;;;;;;;;;;;16.60;99.90;;;;;;5098559;28;19924;-67
2022/09/15 07:51:50;;;;;;;;;;;16.60;99.90;;;;;;5098193;28;19935;-67
2022/09/15 07:54:16;;;;;;;;;;;16.70;99.90;;;;;;5067277;28;19985;-67
2022/09/15 07:56:41;;;;;;;;;;;16.60;99.90;;;;;;5083333;28;20186;-67
2022/09/15 07:59:07;;;;;;;;;;;16.60;99.90;;;;;;5097182;28;19920;-65
2022/09/15 08:01:33;;;;;;;;;;;16.70;99.90;;;;;;5096550;28;19924;-67
2022/09/15 08:03:59;;;;;;;;;;;16.50;99.90;;;;;;5092038;28;19931;-67
2022/09/15 08:06:26;;;;;;;;;;;16.70;99.90;;;;;;5080090;28;19978;-68
2022/09/15 08:08:52;;;;;;;;;;;16.70;99.90;;;;;;5073847;28;19920;-69
2022/09/15 08:11:19;;;;;;;;;;;16.60;99.90;;;;;;5073723;28;20255;-67
2022/09/15 08:13:48;;;;;;;;;;;16.80;99.90;;;;;;5090233;28;19920;-67
2022/09/15 08:16:15;;;;;;;;;;;16.80;99.90;;;;;;5093209;28;20002;-67
2022/09/15 08:18:42;;;;;;;;;;;16.80;99.90;;;;;;5092887;28;19927;-68
2022/09/15 08:21:09;;;;;;;;;;;16.70;99.90;;;;;;5092922;28;20174;-66
2022/09/15 08:23:35;;;;;;;;;;;16.40;99.90;;;;;;5086551;28;20392;-66
2022/09/15 08:26:01;;;;;;;;;;;15.60;99.90;;;;;;5077296;28;20161;-67
2022/09/15 08:28:26;;;;;;;;;;;15.50;99.90;;;;;;5073497;28;20411;-68
2022/09/15 08:30:59;;;;;;;;;;;15.40;99.90;;;;;;5081113;28;19923;-68
2022/09/15 08:33:24;;;;;;;;;;;15.50;99.90;;;;;;5091167;28;20431;-67
2022/09/15 08:35:50;;;;;;;;;;;15.50;99.90;;;;;;5091356;28;20703;-68
2022/09/15 08:38:15;;;;;;;;;;;15.70;99.90;;;;;;5078879;28;20313;-67
2022/09/15 08:40:43;;;;;;;;;;;15.80;99.90;;;;;;5092506;28;19982;-66
2022/09/15 08:43:34;;;;;;;;;;;16.00;99.90;;;;;;5092131;28;20843;-69
2022/09/15 08:46:05;;;;;;;;;;;16.00;99.90;;;;;;5069042;28;19920;-67
2022/09/15 08:48:35;;;;;;;;;;;16.10;99.90;;;;;;5071217;28;19968;-68
2022/09/15 08:51:04;;;;;;;;;;;16.20;99.90;;;;;;5072634;28;19971;-69
2022/09/15 08:53:33;;;;;;;;;;;16.20;99.90;;;;;;5071600;28;20264;-69
2022/09/15 08:56:00;;;;;;;;;;;16.20;99.90;;;;;;5070855;28;20264;-68
2022/09/15 08:58:27;;;;;;;;;;;16.30;99.90;;;;;;5087206;28;20340;-66
2022/09/15 09:01:16;;;;;;;;;;;16.40;99.90;;;;;;5090399;28;19919;-66
2022/09/15 09:03:42;;;;;;;;;;;16.60;99.90;;;;;;5050545;28;20287;-69
2022/09/15 09:06:46;;;;;;;;;;;16.90;99.90;;;;;;5072280;28;19920;-67
2022/09/15 09:09:12;;;;;;;;;;;17.00;99.90;;;;;;4992893;28;20023;-68
2022/09/15 09:11:56;;;;;;;;;;;17.30;99.90;;;;;;5008782;28;20809;-68
2022/09/15 09:14:26;;;;;;;;;;;17.50;99.90;;;;;;5052818;28;20394;-66
2022/09/15 09:16:58;;;;;;;;;;;17.60;99.90;;;;;;5072138;28;20514;-69
2022/09/15 09:19:30;;;;;;;;;;;17.60;99.90;;;;;;5070788;28;19928;-68
2022/09/15 09:22:02;;;;;;;;;;;17.60;99.90;;;;;;5070455;28;20299;-68
2022/09/15 09:24:34;;;;;;;;;;;17.90;99.90;;;;;;5070293;28;20442;-68
2022/09/15 09:27:00;;;;;;;;;;;18.30;99.90;;;;;;5071653;28;20052;-68
2022/09/15 09:29:30;;;;;;;;;;;18.50;99.90;;;;;;5070615;28;20360;-70
2022/09/15 09:31:56;;;;;;;;;;;18.70;99.90;;;;;;5071567;28;19931;-70
2022/09/15 09:34:27;;;;;;;;;;;18.80;99.90;;;;;;5073735;28;19920;-66
2022/09/15 09:37:13;;;;;;;;;;;18.70;99.90;;;;;;5092845;28;20125;-68
2022/09/15 09:39:39;;;;;;;;;;;18.80;99.90;;;;;;5083861;28;19924;-69
2022/09/15 09:42:05;;;;;;;;;;;19.20;99.90;;;;;;5088848;28;20002;-67
2022/09/15 09:44:31;;;;;;;;;;;19.00;99.90;;;;;;5074714;28;19920;-67
2022/09/15 09:46:58;;;;;;;;;;;19.10;99.90;;;;;;5088605;28;20255;-67
2022/09/15 09:49:24;;;;;;;;;;;18.80;99.90;;;;;;5072095;28;20242;-65
2022/09/15 09:51:54;;;;;;;;;;;18.80;99.90;;;;;;5080449;28;20044;-70
2022/09/15 09:54:20;;;;;;;;;;;18.70;99.90;;;;;;5072516;28;20002;-70
2022/09/15 09:56:50;;;;;;;;;;;18.60;99.90;;;;;;5074340;28;19928;-67
2022/09/15 09:59:30;;;;;;;;;;;18.00;99.90;;;;;;5072233;28;19924;-67
2022/09/15 10:02:10;;;;;;;;;;;18.00;99.90;;;;;;5072312;28;19962;-67
2022/09/15 10:04:40;;;;;;;;;;;17.80;99.90;;;;;;5073218;28;20194;-68
2022/09/15 10:07:05;;;;;;;;;;;17.60;99.90;;;;;;5082447;28;20402;-68
2022/09/15 10:09:31;;;;;;;;;;;17.60;99.90;;;;;;5090163;28;19920;-70
2022/09/15 10:11:58;;;;;;;;;;;17.50;99.90;;;;;;5089716;28;19930;-68
2022/09/15 10:14:27;;;;;;;;;;;17.20;99.90;;;;;;5090775;28;19977;-67
2022/09/15 10:16:55;;;;;;;;;;;17.20;99.90;;;;;;5090213;28;19923;-67
2022/09/15 10:19:20;;;;;;;;;;;17.60;99.90;;;;;;5089183;28;19927;-68
2022/09/15 10:21:46;;;;;;;;;;;18.80;99.90;;;;;;5087907;28;20519;-68
2022/09/15 10:24:31;;;;;;;;;;;19.80;99.90;;;;;;5089159;28;20308;-69
2022/09/15 10:27:16;;;;;;;;;;;20.40;99.90;;;;;;5089850;28;20415;-69
2022/09/15 10:29:42;;;;;;;;;;;20.80;99.90;;;;;;5088568;28;20574;-68
2022/09/15 10:32:15;;;;;;;;;;;20.60;99.90;;;;;;5090007;28;19923;-67
2022/09/15 10:34:42;;;;;;;;;;;20.50;99.90;;;;;;5091231;28;19920;-67
2022/09/15 10:37:28;;;;;;;;;;;19.90;99.90;;;;;;5092725;28;19924;-69
2022/09/15 10:39:55;;;;;;;;;;;18.80;99.90;;;;;;5092588;28;19935;-68
2022/09/15 10:42:38;;;;;;;;;;;18.30;99.90;;;;;;5092567;28;19923;-70
2022/09/15 10:45:23;;;;;;;;;;;18.30;99.90;;;;;;5089297;28;20006;-68
2022/09/15 10:47:48;;;;;;;;;;;18.00;99.90;;;;;;5090330;28;20437;-67
2022/09/15 10:50:27;;;;;;;;;;;17.60;99.90;;;;;;5090736;28;19930;-69
2022/09/15 10:53:16;;;;;;;;;;;17.10;99.90;;;;;;5089587;28;20357;-67
2022/09/15 10:55:57;;;;;;;;;;;16.80;99.90;;;;;;5079745;28;20324;-68
2022/09/15 10:58:22;;;;;;;;;;;16.50;99.90;;;;;;5089720;28;20618;-68
2022/09/15 11:01:00;;;;;;;;;;;16.50;99.90;;;;;;5089508;28;19919;-67
2022/09/15 11:03:36;;;;;;;;;;;16.70;99.90;;;;;;5089406;28;19980;-67
2022/09/15 11:06:21;;;;;;;;;;;16.90;99.90;;;;;;5088765;28;19959;-70
2022/09/15 11:08:46;;;;;;;;;;;17.20;99.90;;;;;;5089862;28;19928;-67
2022/09/15 11:11:32;;;;;;;;;;;17.10;99.90;;;;;;5089498;28;19923;-68
2022/09/15 11:14:17;;;;;;;;;;;17.10;99.90;;;;;;5067109;28;19973;-67
2022/09/15 11:16:43;;;;;;;;;;;16.70;99.90;;;;;;5089442;28;19920;-66
2022/09/15 11:19:09;;;;;;;;;;;16.50;99.90;;;;;;5092195;28;19934;-68
2022/09/15 11:21:41;;;;;;;;;;;16.10;99.90;;;;;;5093829;28;19924;-66
2022/09/15 11:24:13;;;;;;;;;;;15.60;99.90;;;;;;5093447;28;19979;-66
2022/09/15 11:26:42;;;;;;;;;;;15.00;99.90;;;;;;5093708;28;19920;-68
2022/09/15 11:29:21;;;;;;;;;;;14.40;99.90;;;;;;5080352;28;20236;-66
2022/09/15 11:31:50;;;;;;;;;;;14.10;99.90;;;;;;5093825;28;20398;-67
2022/09/15 11:34:25;;;;;;;;;;;14.20;99.90;;;;;;5092919;28;19969;-66
2022/09/15 11:36:55;;;;;;;;;;;14.10;99.90;;;;;;5093286;28;20438;-67
2022/09/15 11:39:28;;;;;;;;;;;14.20;99.90;;;;;;5092997;28;19924;-67
2022/09/15 11:41:58;;;;;;;;;;;14.20;99.90;;;;;;5093831;27;19941;-65
2022/09/15 11:44:27;;;;;;;;;;;14.50;99.90;;;;;;5073498;28;19920;-68
2022/09/15 11:47:15;;;;;;;;;;;14.70;99.90;;;;;;5073534;28;20391;-66
2022/09/15 11:49:52;;;;;;;;;;;15.70;99.90;;;;;;5093050;28;19923;-68
2022/09/15 11:52:38;;;;;;;;;;;16.70;99.90;;;;;;5092790;28;20392;-67
2022/09/15 11:55:23;;;;;;;;;;;16.50;99.90;;;;;;5084516;28;19923;-66
2022/09/15 11:57:54;;;;;;;;;;;15.90;99.90;;;;;;5091465;28;19920;-68
2022/09/15 12:00:20;;;;;;;;;;;15.50;99.90;;;;;;5091437;28;19988;-68
2022/09/15 12:03:01;;;;;;;;;;;15.20;99.90;;;;;;5091353;28;20642;-66
2022/09/15 12:05:30;;;;;;;;;;;14.90;99.90;;;;;;5092786;28;20046;-67
2022/09/15 12:08:16;;;;;;;;;;;14.70;99.90;;;;;;5091637;28;19923;-67
2022/09/15 12:10:47;;;;;;;;;;;14.30;99.90;;;;;;5091436;28;20563;-69
2022/09/15 12:13:17;;;;;;;;;;;14.10;99.90;;;;;;5091141;28;19924;-67
2022/09/15 12:15:44;;;;;;;;;;;14.20;99.90;;;;;;5093129;28;20221;-67
2022/09/15 12:18:22;;;;;;;;;;;14.00;99.90;;;;;;5092267;28;20018;-67
2022/09/15 12:20:51;;;;;;;;;;;14.30;99.90;;;;;;5092015;28;20355;-67
2022/09/15 12:23:23;;;;;;;;;;;14.40;99.90;;;;;;5092080;28;20441;-70
2022/09/15 12:26:01;;;;;;;;;;;14.40;99.90;;;;;;5092572;28;19923;-69
2022/09/15 12:28:41;;;;;;;;;;;14.50;99.90;;;;;;5092265;28;19990;-69
2022/09/15 12:31:11;;;;;;;;;;;14.80;99.90;;;;;;5082381;28;19920;-66
2022/09/15 12:33:49;;;;;;;;;;;15.00;99.90;;;;;;5092546;28;19928;-66
2022/09/15 12:36:33;;;;;;;;;;;15.30;99.90;;;;;;5091934;28;20412;-72
2022/09/15 12:38:59;;;;;;;;;;;15.20;99.90;;;;;;5092171;28;20539;-66
2022/09/15 12:41:25;;;;;;;;;;;15.40;99.90;;;;;;5090994;28;20425;-68
2022/09/15 12:43:54;;;;;;;;;;;15.60;99.90;;;;;;5092775;28;19924;-67
2022/09/15 12:46:20;;;;;;;;;;;15.80;99.90;;;;;;5092518;28;20368;-67
2022/09/15 12:48:47;;;;;;;;;;;16.20;99.90;;;;;;5092486;28;20770;-67
2022/09/15 12:51:21;;;;;;;;;;;16.80;99.90;;;;;;5092859;28;20015;-68
2022/09/15 12:53:53;;;;;;;;;;;17.10;99.90;;;;;;5094938;28;19927;-71
2022/09/15 12:56:23;;;;;;;;;;;17.20;99.90;;;;;;5094532;28;19919;-69
2022/09/15 12:58:50;;;;;;;;;;;17.30;99.90;;;;;;5094502;28;19924;-69
2022/09/15 13:01:22;;;;;;;;;;;17.50;99.90;;;;;;5094338;27;19924;-68
2022/09/15 13:03:52;;;;;;;;;;;17.20;99.90;;;;;;5094075;27;20390;-69
2022/09/15 13:06:24;;;;;;;;;;;16.80;99.90;;;;;;5094466;28;20550;-67
2022/09/15 13:08:51;;;;;;;;;;;16.20;99.90;;;;;;5093372;28;19924;-67
2022/09/15 13:11:22;;;;;;;;;;;16.20;99.90;;;;;;5091929;28;20015;-67
2022/09/15 13:14:13;;;;;;;;;;;16.10;99.90;;;;;;5091955;28;20142;-68
2022/09/15 13:16:38;;;;;;;;;;;16.20;99.90;;;;;;5082369;28;20365;-66
2022/09/15 13:19:22;;;;;;;;;;;16.00;99.90;;;;;;5091753;28;19926;-70
2022/09/15 13:22:00;;;;;;;;;;;16.10;99.90;;;;;;5091663;28;20258;-69
2022/09/15 13:24:34;;;;;;;;;;;16.50;99.90;;;;;;5092185;28;19930;-67
2022/09/15 13:27:01;;;;;;;;;;;16.90;99.90;;;;;;5078451;28;19924;-67
2022/09/15 13:29:27;;;;;;;;;;;17.10;99.90;;;;;;5072041;28;20004;-69
2022/09/15 13:32:07;;;;;;;;;;;17.40;99.90;;;;;;5071627;28;20213;-67
2022/09/15 13:34:41;;;;;;;;;;;17.50;99.90;;;;;;5072869;28;19920;-68
2022/09/15 13:37:26;;;;;;;;;;;18.00;99.90;;;;;;5091122;28;19924;-67
2022/09/15 13:40:14;;;;;;;;;;;18.30;99.90;;;;;;5089609;28;19920;-67
2022/09/15 13:42:39;;;;;;;;;;;18.60;99.90;;;;;;5090100;28;19923;-68
2022/09/15 13:45:14;;;;;;;;;;;17.50;99.90;;;;;;5082186;27;19923;-67
2022/09/15 13:47:49;;;;;;;;;;;17.00;99.90;;;;;;5091023;28;20006;-70
2022/09/15 13:50:33;;;;;;;;;;;16.30;99.90;;;;;;5091322;28;19972;-67
2022/09/15 13:53:13;;;;;;;;;;;15.90;99.90;;;;;;5091046;28;19924;-67
2022/09/15 13:55:42;;;;;;;;;;;15.80;99.90;;;;;;5082898;27;19993;-68
2022/09/15 13:58:11;;;;;;;;;;;15.90;99.90;;;;;;5070952;28;19924;-68
2022/09/15 14:00:46;;;;;;;;;;;15.80;99.90;;;;;;5070309;28;20032;-67
2022/09/15 14:03:16;;;;;;;;;;;15.90;99.90;;;;;;5069563;28;20115;-69
2022/09/15 14:05:43;;;;;;;;;;;15.80;99.90;;;;;;5071333;28;19974;-67
2022/09/15 14:08:14;;;;;;;;;;;15.80;99.90;;;;;;5071888;28;20014;-70
2022/09/15 14:10:48;;;;;;;;;;;15.50;99.90;;;;;;5053304;28;19924;-66
2022/09/15 14:13:16;;;;;;;;;;;15.30;99.90;;;;;;5071140;28;20475;-67
2022/09/15 14:15:54;;;;;;;;;;;14.90;99.90;;;;;;5070901;28;20383;-68
2022/09/15 14:18:19;;;;;;;;;;;14.70;99.90;;;;;;5070778;28;20036;-68
2022/09/15 14:20:55;;;;;;;;;;;14.40;99.90;;;;;;5071448;28;20547;-67
2022/09/15 14:23:21;;;;;;;;;;;14.30;99.90;;;;;;5071010;28;19924;-66
2022/09/15 14:25:47;;;;;;;;;;;13.90;99.90;;;;;;5079670;28;19930;-66
2022/09/15 14:28:28;;;;;;;;;;;13.90;99.90;;;;;;5090545;28;19989;-67
2022/09/15 14:30:54;;;;;;;;;;;13.70;99.90;;;;;;5090788;28;20016;-67